sensor_id;sensor_type;location;lat;lon;timestamp;P1;durP1;ratioP1;P2;durP2;ratioP2
75620;SDS011;64574;48.506;-2.750;2023-06-14T00:01:37;28.60;;;15.57;;
75620;SDS011;64574;48.506;-2.750;2023-06-14T00:04:03;24.75;;;13.30;;
75620;SDS011;64574;48.506;-2.750;2023-06-14T00:06:33;26.10;;;14.48;;
75620;SDS011;64574;48.506;-2.750;2023-06-14T00:08:59;25.88;;;13.63;;
75620;SDS011;64574;48.506;-2.750;2023-06-14T00:11:25;28.90;;;15.77;;
75620;SDS011;64574;48.506;-2.750;2023-06-14T00:13:52;26.27;;;14.65;;
75620;SDS011;64574;48.506;-2.750;2023-06-14T00:16:17;29.63;;;15.07;;
75620;SDS011;64574;48.506;-2.750;2023-06-14T00:18:44;23.08;;;12.60;;
75620;SDS011;64574;48.506;-2.750;2023-06-14T00:21:10;30.52;;;16.58;;
75620;SDS011;64574;48.506;-2.750;2023-06-14T00:23:37;31.70;;;16.65;;
75620;SDS011;64574;48.506;-2.750;2023-06-14T00:26:02;27.75;;;14.57;;
75620;SDS011;64574;48.506;-2.750;2023-06-14T00:28:28;28.30;;;15.40;;
75620;SDS011;64574;48.506;-2.750;2023-06-14T00:30:54;28.17;;;15.93;;
75620;SDS011;64574;48.506;-2.750;2023-06-14T00:33:20;26.90;;;14.60;;
75620;SDS011;64574;48.506;-2.750;2023-06-14T00:35:46;27.45;;;13.95;;
75620;SDS011;64574;48.506;-2.750;2023-06-14T00:38:12;29.17;;;16.25;;
75620;SDS011;64574;48.506;-2.750;2023-06-14T00:40:38;32.45;;;16.88;;
75620;SDS011;64574;48.506;-2.750;2023-06-14T00:43:03;30.27;;;15.35;;
75620;SDS011;64574;48.506;-2.750;2023-06-14T00:45:29;31.08;;;16.25;;
75620;SDS011;64574;48.506;-2.750;2023-06-14T00:47:56;26.33;;;13.98;;
75620;SDS011;64574;48.506;-2.750;2023-06-14T00:50:23;30.30;;;15.93;;
75620;SDS011;64574;48.506;-2.750;2023-06-14T00:52:49;28.90;;;14.02;;
75620;SDS011;64574;48.506;-2.750;2023-06-14T00:55:15;29.73;;;15.98;;
75620;SDS011;64574;48.506;-2.750;2023-06-14T00:57:40;31.83;;;15.80;;
75620;SDS011;64574;48.506;-2.750;2023-06-14T01:00:07;29.63;;;15.05;;
75620;SDS011;64574;48.506;-2.750;2023-06-14T01:02:35;27.70;;;14.85;;
75620;SDS011;64574;48.506;-2.750;2023-06-14T01:05:02;25.65;;;13.70;;
75620;SDS011;64574;48.506;-2.750;2023-06-14T01:07:51;29.35;;;15.80;;
75620;SDS011;64574;48.506;-2.750;2023-06-14T01:13:02;26.13;;;14.00;;
75620;SDS011;64574;48.506;-2.750;2023-06-14T01:15:29;30.92;;;16.85;;
75620;SDS011;64574;48.506;-2.750;2023-06-14T01:17:56;30.58;;;16.67;;
75620;SDS011;64574;48.506;-2.750;2023-06-14T01:20:28;30.52;;;17.20;;
75620;SDS011;64574;48.506;-2.750;2023-06-14T01:22:55;31.98;;;16.17;;
75620;SDS011;64574;48.506;-2.750;2023-06-14T01:25:21;27.23;;;13.80;;
75620;SDS011;64574;48.506;-2.750;2023-06-14T01:28:06;33.28;;;16.55;;
75620;SDS011;64574;48.506;-2.750;2023-06-14T01:30:40;35.33;;;21.42;;
75620;SDS011;64574;48.506;-2.750;2023-06-14T01:33:09;33.03;;;17.90;;
75620;SDS011;64574;48.506;-2.750;2023-06-14T01:35:50;33.88;;;17.63;;
75620;SDS011;64574;48.506;-2.750;2023-06-14T01:38:20;28.30;;;14.75;;
75620;SDS011;64574;48.506;-2.750;2023-06-14T01:40:48;33.72;;;16.88;;
75620;SDS011;64574;48.506;-2.750;2023-06-14T01:43:15;30.92;;;17.05;;
75620;SDS011;64574;48.506;-2.750;2023-06-14T01:45:42;31.30;;;17.67;;
75620;SDS011;64574;48.506;-2.750;2023-06-14T01:48:09;30.83;;;16.98;;
75620;SDS011;64574;48.506;-2.750;2023-06-14T01:50:35;29.55;;;15.77;;
75620;SDS011;64574;48.506;-2.750;2023-06-14T01:53:00;32.28;;;16.58;;
75620;SDS011;64574;48.506;-2.750;2023-06-14T01:55:26;32.85;;;16.45;;
75620;SDS011;64574;48.506;-2.750;2023-06-14T01:57:52;33.00;;;17.73;;
75620;SDS011;64574;48.506;-2.750;2023-06-14T02:00:18;29.52;;;16.73;;
75620;SDS011;64574;48.506;-2.750;2023-06-14T02:02:45;31.92;;;17.05;;
75620;SDS011;64574;48.506;-2.750;2023-06-14T02:05:14;26.77;;;14.38;;
75620;SDS011;64574;48.506;-2.750;2023-06-14T02:07:43;29.50;;;16.52;;
75620;SDS011;64574;48.506;-2.750;2023-06-14T02:10:09;28.67;;;16.90;;
75620;SDS011;64574;48.506;-2.750;2023-06-14T02:12:35;31.45;;;16.27;;
75620;SDS011;64574;48.506;-2.750;2023-06-14T02:15:01;36.75;;;17.38;;
75620;SDS011;64574;48.506;-2.750;2023-06-14T02:17:26;29.58;;;15.50;;
75620;SDS011;64574;48.506;-2.750;2023-06-14T02:19:52;34.30;;;17.35;;
75620;SDS011;64574;48.506;-2.750;2023-06-14T02:22:17;36.85;;;17.88;;
75620;SDS011;64574;48.506;-2.750;2023-06-14T02:24:45;27.55;;;15.52;;
75620;SDS011;64574;48.506;-2.750;2023-06-14T02:27:10;29.95;;;15.77;;
75620;SDS011;64574;48.506;-2.750;2023-06-14T02:29:36;33.13;;;16.63;;
75620;SDS011;64574;48.506;-2.750;2023-06-14T02:32:02;33.88;;;17.52;;
75620;SDS011;64574;48.506;-2.750;2023-06-14T02:34:29;33.80;;;18.13;;
75620;SDS011;64574;48.506;-2.750;2023-06-14T02:36:55;37.35;;;22.65;;
75620;SDS011;64574;48.506;-2.750;2023-06-14T02:39:20;35.00;;;18.30;;
75620;SDS011;64574;48.506;-2.750;2023-06-14T02:41:48;37.20;;;19.00;;
75620;SDS011;64574;48.506;-2.750;2023-06-14T02:44:14;32.35;;;17.95;;
75620;SDS011;64574;48.506;-2.750;2023-06-14T02:49:08;35.80;;;17.48;;
75620;SDS011;64574;48.506;-2.750;2023-06-14T02:51:35;33.85;;;18.90;;
75620;SDS011;64574;48.506;-2.750;2023-06-14T02:54:00;35.65;;;18.88;;
75620;SDS011;64574;48.506;-2.750;2023-06-14T02:56:26;33.45;;;19.00;;
75620;SDS011;64574;48.506;-2.750;2023-06-14T02:58:51;34.22;;;17.80;;
75620;SDS011;64574;48.506;-2.750;2023-06-14T03:01:18;30.38;;;15.48;;
75620;SDS011;64574;48.506;-2.750;2023-06-14T03:03:45;28.17;;;14.70;;
75620;SDS011;64574;48.506;-2.750;2023-06-14T03:06:11;31.52;;;15.98;;
75620;SDS011;64574;48.506;-2.750;2023-06-14T03:08:39;31.48;;;17.63;;
75620;SDS011;64574;48.506;-2.750;2023-06-14T03:11:06;36.40;;;19.05;;
75620;SDS011;64574;48.506;-2.750;2023-06-14T03:13:32;36.05;;;17.02;;
75620;SDS011;64574;48.506;-2.750;2023-06-14T03:16:02;38.38;;;18.98;;
75620;SDS011;64574;48.506;-2.750;2023-06-14T03:18:29;37.55;;;19.42;;
75620;SDS011;64574;48.506;-2.750;2023-06-14T03:20:56;34.75;;;18.98;;
75620;SDS011;64574;48.506;-2.750;2023-06-14T03:23:23;37.47;;;18.95;;
75620;SDS011;64574;48.506;-2.750;2023-06-14T03:25:50;37.75;;;19.25;;
75620;SDS011;64574;48.506;-2.750;2023-06-14T03:28:16;28.60;;;15.75;;
75620;SDS011;64574;48.506;-2.750;2023-06-14T03:30:42;37.45;;;19.95;;
75620;SDS011;64574;48.506;-2.750;2023-06-14T03:33:07;36.95;;;22.92;;
75620;SDS011;64574;48.506;-2.750;2023-06-14T03:35:33;41.37;;;24.70;;
75620;SDS011;64574;48.506;-2.750;2023-06-14T03:37:59;38.90;;;22.02;;
75620;SDS011;64574;48.506;-2.750;2023-06-14T03:40:25;38.63;;;20.75;;
75620;SDS011;64574;48.506;-2.750;2023-06-14T03:45:17;35.72;;;18.90;;
75620;SDS011;64574;48.506;-2.750;2023-06-14T03:47:42;39.15;;;20.80;;
75620;SDS011;64574;48.506;-2.750;2023-06-14T03:50:08;37.33;;;19.58;;
75620;SDS011;64574;48.506;-2.750;2023-06-14T03:52:34;38.30;;;18.85;;
75620;SDS011;64574;48.506;-2.750;2023-06-14T03:55:00;38.10;;;20.35;;
75620;SDS011;64574;48.506;-2.750;2023-06-14T03:59:51;37.72;;;20.90;;
75620;SDS011;64574;48.506;-2.750;2023-06-14T04:02:17;32.10;;;16.88;;
75620;SDS011;64574;48.506;-2.750;2023-06-14T04:04:44;35.90;;;19.48;;
75620;SDS011;64574;48.506;-2.750;2023-06-14T04:07:13;38.08;;;19.75;;
75620;SDS011;64574;48.506;-2.750;2023-06-14T04:09:39;36.25;;;19.55;;
75620;SDS011;64574;48.506;-2.750;2023-06-14T04:12:05;31.73;;;18.75;;
75620;SDS011;64574;48.506;-2.750;2023-06-14T04:14:33;33.00;;;18.80;;
75620;SDS011;64574;48.506;-2.750;2023-06-14T04:16:59;34.38;;;18.88;;
75620;SDS011;64574;48.506;-2.750;2023-06-14T04:19:25;37.60;;;19.50;;
75620;SDS011;64574;48.506;-2.750;2023-06-14T04:21:51;33.33;;;17.92;;
75620;SDS011;64574;48.506;-2.750;2023-06-14T04:24:17;35.97;;;19.55;;
75620;SDS011;64574;48.506;-2.750;2023-06-14T04:26:43;36.67;;;18.33;;
75620;SDS011;64574;48.506;-2.750;2023-06-14T04:29:16;37.60;;;18.95;;
75620;SDS011;64574;48.506;-2.750;2023-06-14T04:31:44;34.08;;;18.77;;
75620;SDS011;64574;48.506;-2.750;2023-06-14T04:34:11;36.72;;;20.17;;
75620;SDS011;64574;48.506;-2.750;2023-06-14T04:36:41;41.55;;;20.15;;
75620;SDS011;64574;48.506;-2.750;2023-06-14T04:39:17;38.78;;;20.50;;
75620;SDS011;64574;48.506;-2.750;2023-06-14T04:41:44;40.45;;;19.70;;
75620;SDS011;64574;48.506;-2.750;2023-06-14T04:44:10;35.78;;;18.98;;
75620;SDS011;64574;48.506;-2.750;2023-06-14T04:46:37;35.38;;;19.45;;
75620;SDS011;64574;48.506;-2.750;2023-06-14T04:49:12;37.92;;;19.67;;
75620;SDS011;64574;48.506;-2.750;2023-06-14T04:51:41;36.97;;;20.05;;
75620;SDS011;64574;48.506;-2.750;2023-06-14T04:54:07;33.55;;;18.25;;
75620;SDS011;64574;48.506;-2.750;2023-06-14T04:56:38;34.83;;;19.92;;
75620;SDS011;64574;48.506;-2.750;2023-06-14T04:59:07;31.60;;;18.92;;
75620;SDS011;64574;48.506;-2.750;2023-06-14T05:01:34;32.88;;;18.77;;
75620;SDS011;64574;48.506;-2.750;2023-06-14T05:04:00;29.85;;;18.35;;
75620;SDS011;64574;48.506;-2.750;2023-06-14T05:06:26;32.08;;;18.35;;
75620;SDS011;64574;48.506;-2.750;2023-06-14T05:08:52;33.42;;;18.38;;
75620;SDS011;64574;48.506;-2.750;2023-06-14T05:11:18;35.05;;;19.48;;
75620;SDS011;64574;48.506;-2.750;2023-06-14T05:13:44;29.52;;;18.40;;
75620;SDS011;64574;48.506;-2.750;2023-06-14T05:16:10;33.10;;;18.27;;
75620;SDS011;64574;48.506;-2.750;2023-06-14T05:18:36;31.15;;;18.35;;
75620;SDS011;64574;48.506;-2.750;2023-06-14T05:21:03;34.83;;;19.30;;
75620;SDS011;64574;48.506;-2.750;2023-06-14T05:23:30;31.52;;;18.15;;
75620;SDS011;64574;48.506;-2.750;2023-06-14T05:25:56;30.10;;;17.67;;
75620;SDS011;64574;48.506;-2.750;2023-06-14T05:28:22;29.60;;;18.67;;
75620;SDS011;64574;48.506;-2.750;2023-06-14T05:30:47;34.40;;;19.90;;
75620;SDS011;64574;48.506;-2.750;2023-06-14T05:33:13;34.58;;;19.10;;
75620;SDS011;64574;48.506;-2.750;2023-06-14T05:35:38;32.72;;;19.25;;
75620;SDS011;64574;48.506;-2.750;2023-06-14T05:38:04;29.75;;;17.52;;
75620;SDS011;64574;48.506;-2.750;2023-06-14T05:40:30;29.20;;;16.00;;
75620;SDS011;64574;48.506;-2.750;2023-06-14T05:42:56;27.27;;;16.60;;
75620;SDS011;64574;48.506;-2.750;2023-06-14T05:45:22;25.00;;;14.73;;
75620;SDS011;64574;48.506;-2.750;2023-06-14T05:47:47;28.10;;;16.63;;
75620;SDS011;64574;48.506;-2.750;2023-06-14T05:50:13;28.48;;;15.93;;
75620;SDS011;64574;48.506;-2.750;2023-06-14T05:52:39;26.23;;;14.95;;
75620;SDS011;64574;48.506;-2.750;2023-06-14T05:55:05;23.45;;;14.82;;
75620;SDS011;64574;48.506;-2.750;2023-06-14T05:57:31;28.38;;;16.77;;
75620;SDS011;64574;48.506;-2.750;2023-06-14T05:59:56;24.25;;;14.45;;
75620;SDS011;64574;48.506;-2.750;2023-06-14T06:02:22;24.38;;;13.52;;
75620;SDS011;64574;48.506;-2.750;2023-06-14T06:04:47;23.65;;;13.77;;
75620;SDS011;64574;48.506;-2.750;2023-06-14T06:07:13;30.45;;;14.70;;
75620;SDS011;64574;48.506;-2.750;2023-06-14T06:09:39;30.17;;;16.70;;
75620;SDS011;64574;48.506;-2.750;2023-06-14T06:12:05;24.10;;;14.15;;
75620;SDS011;64574;48.506;-2.750;2023-06-14T06:14:32;24.02;;;14.25;;
75620;SDS011;64574;48.506;-2.750;2023-06-14T06:16:57;29.00;;;15.98;;
75620;SDS011;64574;48.506;-2.750;2023-06-14T06:19:23;23.13;;;13.73;;
75620;SDS011;64574;48.506;-2.750;2023-06-14T06:21:49;23.35;;;14.25;;
75620;SDS011;64574;48.506;-2.750;2023-06-14T06:24:15;28.15;;;14.95;;
75620;SDS011;64574;48.506;-2.750;2023-06-14T06:26:41;26.58;;;14.45;;
75620;SDS011;64574;48.506;-2.750;2023-06-14T06:29:07;25.02;;;15.55;;
75620;SDS011;64574;48.506;-2.750;2023-06-14T06:31:33;21.40;;;12.75;;
75620;SDS011;64574;48.506;-2.750;2023-06-14T06:33:58;27.95;;;15.68;;
75620;SDS011;64574;48.506;-2.750;2023-06-14T06:36:24;23.13;;;13.18;;
75620;SDS011;64574;48.506;-2.750;2023-06-14T06:38:50;24.58;;;14.43;;
75620;SDS011;64574;48.506;-2.750;2023-06-14T06:41:16;23.40;;;12.80;;
75620;SDS011;64574;48.506;-2.750;2023-06-14T06:43:41;22.10;;;13.45;;
75620;SDS011;64574;48.506;-2.750;2023-06-14T06:46:07;20.58;;;12.23;;
75620;SDS011;64574;48.506;-2.750;2023-06-14T06:48:33;23.45;;;13.57;;
75620;SDS011;64574;48.506;-2.750;2023-06-14T06:50:59;23.73;;;13.50;;
75620;SDS011;64574;48.506;-2.750;2023-06-14T06:53:25;24.98;;;13.88;;
75620;SDS011;64574;48.506;-2.750;2023-06-14T06:55:51;21.23;;;12.70;;
75620;SDS011;64574;48.506;-2.750;2023-06-14T06:58:16;19.55;;;12.63;;
75620;SDS011;64574;48.506;-2.750;2023-06-14T07:00:42;24.60;;;14.32;;
75620;SDS011;64574;48.506;-2.750;2023-06-14T07:03:08;21.15;;;12.45;;
75620;SDS011;64574;48.506;-2.750;2023-06-14T07:05:34;24.95;;;17.27;;
75620;SDS011;64574;48.506;-2.750;2023-06-14T07:08:00;20.20;;;12.45;;
75620;SDS011;64574;48.506;-2.750;2023-06-14T07:10:25;19.65;;;11.73;;
75620;SDS011;64574;48.506;-2.750;2023-06-14T07:12:51;17.73;;;11.75;;
75620;SDS011;64574;48.506;-2.750;2023-06-14T07:15:19;21.95;;;13.65;;
75620;SDS011;64574;48.506;-2.750;2023-06-14T07:17:46;17.48;;;11.45;;
75620;SDS011;64574;48.506;-2.750;2023-06-14T07:20:12;21.58;;;13.68;;
75620;SDS011;64574;48.506;-2.750;2023-06-14T07:25:06;19.65;;;9.70;;
75620;SDS011;64574;48.506;-2.750;2023-06-14T07:27:33;18.67;;;12.40;;
75620;SDS011;64574;48.506;-2.750;2023-06-14T07:29:59;16.58;;;9.65;;
75620;SDS011;64574;48.506;-2.750;2023-06-14T07:32:25;17.05;;;10.45;;
75620;SDS011;64574;48.506;-2.750;2023-06-14T07:34:51;19.52;;;10.75;;
75620;SDS011;64574;48.506;-2.750;2023-06-14T07:37:17;14.40;;;9.23;;
75620;SDS011;64574;48.506;-2.750;2023-06-14T07:39:42;21.08;;;12.77;;
75620;SDS011;64574;48.506;-2.750;2023-06-14T07:42:08;14.23;;;9.57;;
75620;SDS011;64574;48.506;-2.750;2023-06-14T07:44:34;16.13;;;9.05;;
75620;SDS011;64574;48.506;-2.750;2023-06-14T07:46:59;14.50;;;9.30;;
75620;SDS011;64574;48.506;-2.750;2023-06-14T07:49:26;14.82;;;9.05;;
75620;SDS011;64574;48.506;-2.750;2023-06-14T07:51:51;19.50;;;10.10;;
75620;SDS011;64574;48.506;-2.750;2023-06-14T07:54:19;16.35;;;9.77;;
75620;SDS011;64574;48.506;-2.750;2023-06-14T07:56:50;18.83;;;10.35;;
75620;SDS011;64574;48.506;-2.750;2023-06-14T07:59:16;16.35;;;9.90;;
75620;SDS011;64574;48.506;-2.750;2023-06-14T08:01:42;13.25;;;8.23;;
75620;SDS011;64574;48.506;-2.750;2023-06-14T08:04:12;12.52;;;7.15;;
75620;SDS011;64574;48.506;-2.750;2023-06-14T08:06:39;12.18;;;6.13;;
75620;SDS011;64574;48.506;-2.750;2023-06-14T08:09:04;19.35;;;7.22;;
75620;SDS011;64574;48.506;-2.750;2023-06-14T08:11:30;10.27;;;6.05;;
75620;SDS011;64574;48.506;-2.750;2023-06-14T08:13:56;11.30;;;6.15;;
75620;SDS011;64574;48.506;-2.750;2023-06-14T08:16:22;12.73;;;5.90;;
75620;SDS011;64574;48.506;-2.750;2023-06-14T08:18:48;10.40;;;5.68;;
75620;SDS011;64574;48.506;-2.750;2023-06-14T08:21:14;13.57;;;6.35;;
75620;SDS011;64574;48.506;-2.750;2023-06-14T08:23:40;11.65;;;5.70;;
75620;SDS011;64574;48.506;-2.750;2023-06-14T08:26:08;13.32;;;7.00;;
75620;SDS011;64574;48.506;-2.750;2023-06-14T08:28:34;11.52;;;5.68;;
75620;SDS011;64574;48.506;-2.750;2023-06-14T08:31:00;11.55;;;6.32;;
75620;SDS011;64574;48.506;-2.750;2023-06-14T08:33:26;8.65;;;5.55;;
75620;SDS011;64574;48.506;-2.750;2023-06-14T08:35:52;11.32;;;6.53;;
75620;SDS011;64574;48.506;-2.750;2023-06-14T08:38:18;9.05;;;5.07;;
75620;SDS011;64574;48.506;-2.750;2023-06-14T08:40:45;12.38;;;7.05;;
75620;SDS011;64574;48.506;-2.750;2023-06-14T08:43:13;13.15;;;6.82;;
75620;SDS011;64574;48.506;-2.750;2023-06-14T08:45:38;9.32;;;5.78;;
75620;SDS011;64574;48.506;-2.750;2023-06-14T08:48:05;13.45;;;6.43;;
75620;SDS011;64574;48.506;-2.750;2023-06-14T08:50:32;13.45;;;6.68;;
75620;SDS011;64574;48.506;-2.750;2023-06-14T08:53:01;10.70;;;5.32;;
75620;SDS011;64574;48.506;-2.750;2023-06-14T08:55:28;11.70;;;5.70;;
75620;SDS011;64574;48.506;-2.750;2023-06-14T08:57:56;10.55;;;4.88;;
75620;SDS011;64574;48.506;-2.750;2023-06-14T09:00:24;11.50;;;5.88;;
75620;SDS011;64574;48.506;-2.750;2023-06-14T09:02:51;9.45;;;4.90;;
75620;SDS011;64574;48.506;-2.750;2023-06-14T09:05:22;14.50;;;6.50;;
75620;SDS011;64574;48.506;-2.750;2023-06-14T09:07:49;7.40;;;4.55;;
75620;SDS011;64574;48.506;-2.750;2023-06-14T09:10:15;16.85;;;6.45;;
75620;SDS011;64574;48.506;-2.750;2023-06-14T09:12:41;12.43;;;6.10;;
75620;SDS011;64574;48.506;-2.750;2023-06-14T09:15:07;10.02;;;5.20;;
75620;SDS011;64574;48.506;-2.750;2023-06-14T09:17:37;8.35;;;5.28;;
75620;SDS011;64574;48.506;-2.750;2023-06-14T09:20:07;9.93;;;4.95;;
75620;SDS011;64574;48.506;-2.750;2023-06-14T09:22:35;8.65;;;4.55;;
75620;SDS011;64574;48.506;-2.750;2023-06-14T09:25:04;14.00;;;4.50;;
75620;SDS011;64574;48.506;-2.750;2023-06-14T09:27:31;9.25;;;4.63;;
75620;SDS011;64574;48.506;-2.750;2023-06-14T09:29:57;10.18;;;5.10;;
75620;SDS011;64574;48.506;-2.750;2023-06-14T09:32:23;8.32;;;4.63;;
75620;SDS011;64574;48.506;-2.750;2023-06-14T09:37:28;10.00;;;5.05;;
75620;SDS011;64574;48.506;-2.750;2023-06-14T09:42:20;9.20;;;4.85;;
75620;SDS011;64574;48.506;-2.750;2023-06-14T09:44:48;8.77;;;4.32;;
75620;SDS011;64574;48.506;-2.750;2023-06-14T09:47:17;9.20;;;4.28;;
75620;SDS011;64574;48.506;-2.750;2023-06-14T09:49:44;9.02;;;5.15;;
75620;SDS011;64574;48.506;-2.750;2023-06-14T09:52:19;8.52;;;5.18;;
75620;SDS011;64574;48.506;-2.750;2023-06-14T09:54:48;8.85;;;5.22;;
75620;SDS011;64574;48.506;-2.750;2023-06-14T09:57:15;6.97;;;4.65;;
75620;SDS011;64574;48.506;-2.750;2023-06-14T09:59:45;9.30;;;5.25;;
75620;SDS011;64574;48.506;-2.750;2023-06-14T10:04:39;11.18;;;5.57;;
75620;SDS011;64574;48.506;-2.750;2023-06-14T10:07:11;12.43;;;5.72;;
75620;SDS011;64574;48.506;-2.750;2023-06-14T10:09:43;9.25;;;4.85;;
75620;SDS011;64574;48.506;-2.750;2023-06-14T10:12:14;10.65;;;5.85;;
75620;SDS011;64574;48.506;-2.750;2023-06-14T10:14:46;10.30;;;6.43;;
75620;SDS011;64574;48.506;-2.750;2023-06-14T10:17:17;8.77;;;5.32;;
75620;SDS011;64574;48.506;-2.750;2023-06-14T10:23:07;10.15;;;4.68;;
75620;SDS011;64574;48.506;-2.750;2023-06-14T10:25:37;8.65;;;5.50;;
75620;SDS011;64574;48.506;-2.750;2023-06-14T10:30:37;10.50;;;5.97;;
75620;SDS011;64574;48.506;-2.750;2023-06-14T10:33:03;10.52;;;5.90;;
75620;SDS011;64574;48.506;-2.750;2023-06-14T10:35:31;8.38;;;5.10;;
75620;SDS011;64574;48.506;-2.750;2023-06-14T10:38:06;10.18;;;5.38;;
75620;SDS011;64574;48.506;-2.750;2023-06-14T10:40:32;8.98;;;5.25;;
75620;SDS011;64574;48.506;-2.750;2023-06-14T10:42:59;12.98;;;6.78;;
75620;SDS011;64574;48.506;-2.750;2023-06-14T10:45:24;8.68;;;5.38;;
75620;SDS011;64574;48.506;-2.750;2023-06-14T10:47:50;11.52;;;5.68;;
75620;SDS011;64574;48.506;-2.750;2023-06-14T10:50:17;10.60;;;5.68;;
75620;SDS011;64574;48.506;-2.750;2023-06-14T10:52:54;8.30;;;5.75;;
75620;SDS011;64574;48.506;-2.750;2023-06-14T10:55:20;8.93;;;5.38;;
75620;SDS011;64574;48.506;-2.750;2023-06-14T10:57:48;7.25;;;5.57;;
75620;SDS011;64574;48.506;-2.750;2023-06-14T11:00:28;9.30;;;5.50;;
75620;SDS011;64574;48.506;-2.750;2023-06-14T11:05:55;7.80;;;4.88;;
75620;SDS011;64574;48.506;-2.750;2023-06-14T11:10:50;8.25;;;5.28;;
75620;SDS011;64574;48.506;-2.750;2023-06-14T11:13:16;9.85;;;5.80;;
75620;SDS011;64574;48.506;-2.750;2023-06-14T11:15:45;9.40;;;5.15;;
75620;SDS011;64574;48.506;-2.750;2023-06-14T11:18:13;10.80;;;5.20;;
75620;SDS011;64574;48.506;-2.750;2023-06-14T11:20:39;7.90;;;4.80;;
75620;SDS011;64574;48.506;-2.750;2023-06-14T11:23:05;8.15;;;5.07;;
75620;SDS011;64574;48.506;-2.750;2023-06-14T11:25:31;7.30;;;5.15;;
75620;SDS011;64574;48.506;-2.750;2023-06-14T11:27:57;9.15;;;5.32;;
75620;SDS011;64574;48.506;-2.750;2023-06-14T11:30:24;9.38;;;4.78;;
75620;SDS011;64574;48.506;-2.750;2023-06-14T11:32:51;11.75;;;5.50;;
75620;SDS011;64574;48.506;-2.750;2023-06-14T11:35:19;12.68;;;6.03;;
75620;SDS011;64574;48.506;-2.750;2023-06-14T11:37:48;8.00;;;5.43;;
75620;SDS011;64574;48.506;-2.750;2023-06-14T11:40:17;10.52;;;5.72;;
75620;SDS011;64574;48.506;-2.750;2023-06-14T11:42:43;8.60;;;5.28;;
75620;SDS011;64574;48.506;-2.750;2023-06-14T11:45:10;7.85;;;5.00;;
75620;SDS011;64574;48.506;-2.750;2023-06-14T11:47:37;7.65;;;4.90;;
75620;SDS011;64574;48.506;-2.750;2023-06-14T11:50:08;13.73;;;6.47;;
75620;SDS011;64574;48.506;-2.750;2023-06-14T11:52:35;12.30;;;6.07;;
75620;SDS011;64574;48.506;-2.750;2023-06-14T11:55:02;9.88;;;5.70;;
75620;SDS011;64574;48.506;-2.750;2023-06-14T11:57:35;9.25;;;5.47;;
75620;SDS011;64574;48.506;-2.750;2023-06-14T12:00:04;8.27;;;4.82;;
75620;SDS011;64574;48.506;-2.750;2023-06-14T12:02:37;12.85;;;5.78;;
75620;SDS011;64574;48.506;-2.750;2023-06-14T12:05:04;6.90;;;4.85;;
75620;SDS011;64574;48.506;-2.750;2023-06-14T12:07:36;11.40;;;4.75;;
75620;SDS011;64574;48.506;-2.750;2023-06-14T12:12:34;11.02;;;5.07;;
75620;SDS011;64574;48.506;-2.750;2023-06-14T12:15:02;7.85;;;4.95;;
75620;SDS011;64574;48.506;-2.750;2023-06-14T12:17:31;12.35;;;5.22;;
75620;SDS011;64574;48.506;-2.750;2023-06-14T12:19:58;10.98;;;6.13;;
75620;SDS011;64574;48.506;-2.750;2023-06-14T12:22:24;9.40;;;4.82;;
75620;SDS011;64574;48.506;-2.750;2023-06-14T12:24:50;7.00;;;4.43;;
75620;SDS011;64574;48.506;-2.750;2023-06-14T12:27:18;8.98;;;4.25;;
75620;SDS011;64574;48.506;-2.750;2023-06-14T12:29:58;10.15;;;4.90;;
75620;SDS011;64574;48.506;-2.750;2023-06-14T12:32:28;9.70;;;5.15;;
75620;SDS011;64574;48.506;-2.750;2023-06-14T12:34:55;11.48;;;4.78;;
75620;SDS011;64574;48.506;-2.750;2023-06-14T12:37:20;8.73;;;5.25;;
75620;SDS011;64574;48.506;-2.750;2023-06-14T12:39:47;9.57;;;5.20;;
75620;SDS011;64574;48.506;-2.750;2023-06-14T12:42:12;8.43;;;4.63;;
75620;SDS011;64574;48.506;-2.750;2023-06-14T12:44:39;13.43;;;5.63;;
75620;SDS011;64574;48.506;-2.750;2023-06-14T12:47:06;8.07;;;4.57;;
75620;SDS011;64574;48.506;-2.750;2023-06-14T12:49:32;14.00;;;5.18;;
75620;SDS011;64574;48.506;-2.750;2023-06-14T12:51:59;7.65;;;4.97;;
75620;SDS011;64574;48.506;-2.750;2023-06-14T12:54:25;8.15;;;4.85;;
75620;SDS011;64574;48.506;-2.750;2023-06-14T12:56:51;8.45;;;4.93;;
75620;SDS011;64574;48.506;-2.750;2023-06-14T12:59:18;7.25;;;4.82;;
75620;SDS011;64574;48.506;-2.750;2023-06-14T13:01:44;10.15;;;4.85;;
75620;SDS011;64574;48.506;-2.750;2023-06-14T13:04:10;6.32;;;4.40;;
75620;SDS011;64574;48.506;-2.750;2023-06-14T13:06:36;9.30;;;4.40;;
75620;SDS011;64574;48.506;-2.750;2023-06-14T13:09:02;9.52;;;4.43;;
75620;SDS011;64574;48.506;-2.750;2023-06-14T13:11:29;15.63;;;5.60;;
75620;SDS011;64574;48.506;-2.750;2023-06-14T13:13:55;10.10;;;4.88;;
75620;SDS011;64574;48.506;-2.750;2023-06-14T13:16:21;7.65;;;4.65;;
75620;SDS011;64574;48.506;-2.750;2023-06-14T13:18:46;8.95;;;4.53;;
75620;SDS011;64574;48.506;-2.750;2023-06-14T13:21:12;11.27;;;4.55;;
75620;SDS011;64574;48.506;-2.750;2023-06-14T13:23:38;8.63;;;4.90;;
75620;SDS011;64574;48.506;-2.750;2023-06-14T13:26:04;8.02;;;5.20;;
75620;SDS011;64574;48.506;-2.750;2023-06-14T13:28:30;10.77;;;4.97;;
75620;SDS011;64574;48.506;-2.750;2023-06-14T13:33:22;7.65;;;4.93;;
75620;SDS011;64574;48.506;-2.750;2023-06-14T13:35:49;15.30;;;5.00;;
75620;SDS011;64574;48.506;-2.750;2023-06-14T13:38:18;8.45;;;4.68;;
75620;SDS011;64574;48.506;-2.750;2023-06-14T13:40:43;8.57;;;4.95;;
75620;SDS011;64574;48.506;-2.750;2023-06-14T13:43:09;11.40;;;5.00;;
75620;SDS011;64574;48.506;-2.750;2023-06-14T13:45:35;11.40;;;5.90;;
75620;SDS011;64574;48.506;-2.750;2023-06-14T13:48:01;7.80;;;4.78;;
75620;SDS011;64574;48.506;-2.750;2023-06-14T13:50:27;13.45;;;5.00;;
75620;SDS011;64574;48.506;-2.750;2023-06-14T13:52:52;8.68;;;5.05;;
75620;SDS011;64574;48.506;-2.750;2023-06-14T13:55:18;9.23;;;5.43;;
75620;SDS011;64574;48.506;-2.750;2023-06-14T13:57:44;8.35;;;4.63;;
75620;SDS011;64574;48.506;-2.750;2023-06-14T14:00:10;6.97;;;4.70;;
75620;SDS011;64574;48.506;-2.750;2023-06-14T14:02:36;8.25;;;5.20;;
75620;SDS011;64574;48.506;-2.750;2023-06-14T14:05:02;9.50;;;5.10;;
75620;SDS011;64574;48.506;-2.750;2023-06-14T14:07:28;8.50;;;4.80;;
75620;SDS011;64574;48.506;-2.750;2023-06-14T14:09:55;10.10;;;4.93;;
75620;SDS011;64574;48.506;-2.750;2023-06-14T14:12:22;9.95;;;5.05;;
75620;SDS011;64574;48.506;-2.750;2023-06-14T14:14:48;9.98;;;4.50;;
75620;SDS011;64574;48.506;-2.750;2023-06-14T14:17:14;8.85;;;5.28;;
75620;SDS011;64574;48.506;-2.750;2023-06-14T14:19:39;9.68;;;5.28;;
75620;SDS011;64574;48.506;-2.750;2023-06-14T14:22:05;11.15;;;4.72;;
75620;SDS011;64574;48.506;-2.750;2023-06-14T14:24:31;9.35;;;5.13;;
75620;SDS011;64574;48.506;-2.750;2023-06-14T14:26:56;10.25;;;4.88;;
75620;SDS011;64574;48.506;-2.750;2023-06-14T14:29:25;7.50;;;4.97;;
75620;SDS011;64574;48.506;-2.750;2023-06-14T14:31:53;9.93;;;4.97;;
75620;SDS011;64574;48.506;-2.750;2023-06-14T14:34:20;9.38;;;5.10;;
75620;SDS011;64574;48.506;-2.750;2023-06-14T14:36:45;9.30;;;5.18;;
75620;SDS011;64574;48.506;-2.750;2023-06-14T14:39:11;7.68;;;4.30;;
75620;SDS011;64574;48.506;-2.750;2023-06-14T14:41:36;7.20;;;3.92;;
75620;SDS011;64574;48.506;-2.750;2023-06-14T14:44:02;8.52;;;4.68;;
75620;SDS011;64574;48.506;-2.750;2023-06-14T14:46:29;12.75;;;5.18;;
75620;SDS011;64574;48.506;-2.750;2023-06-14T14:48:54;7.95;;;4.45;;
75620;SDS011;64574;48.506;-2.750;2023-06-14T14:51:20;8.63;;;4.88;;
75620;SDS011;64574;48.506;-2.750;2023-06-14T14:53:46;8.60;;;5.07;;